sensor_id;sensor_type;location;lat;lon;timestamp;P1;durP1;ratioP1;P2;durP2;ratioP2
58384;SDS011;44185;47.844;8.966;2023-06-26T00:02:04;11.23;;;5.88;;
58384;SDS011;44185;47.844;8.966;2023-06-26T00:04:29;12.25;;;5.50;;
58384;SDS011;44185;47.844;8.966;2023-06-26T00:06:55;10.95;;;5.40;;
58384;SDS011;44185;47.844;8.966;2023-06-26T00:09:22;10.48;;;5.95;;
58384;SDS011;44185;47.844;8.966;2023-06-26T00:11:47;11.25;;;5.90;;
58384;SDS011;44185;47.844;8.966;2023-06-26T00:14:12;10.75;;;5.85;;
58384;SDS011;44185;47.844;8.966;2023-06-26T00:16:38;11.27;;;5.95;;
58384;SDS011;44185;47.844;8.966;2023-06-26T00:19:03;12.18;;;5.78;;
58384;SDS011;44185;47.844;8.966;2023-06-26T00:21:29;11.48;;;5.68;;
58384;SDS011;44185;47.844;8.966;2023-06-26T00:23:54;13.52;;;6.05;;
58384;SDS011;44185;47.844;8.966;2023-06-26T00:26:21;11.70;;;5.53;;
58384;SDS011;44185;47.844;8.966;2023-06-26T00:28:46;11.38;;;5.47;;
58384;SDS011;44185;47.844;8.966;2023-06-26T00:31:12;11.15;;;5.13;;
58384;SDS011;44185;47.844;8.966;2023-06-26T00:33:37;9.82;;;5.05;;
58384;SDS011;44185;47.844;8.966;2023-06-26T00:36:03;10.80;;;6.15;;
58384;SDS011;44185;47.844;8.966;2023-06-26T00:38:29;10.10;;;5.80;;
58384;SDS011;44185;47.844;8.966;2023-06-26T00:40:54;11.60;;;5.43;;
58384;SDS011;44185;47.844;8.966;2023-06-26T00:43:21;10.82;;;5.95;;
58384;SDS011;44185;47.844;8.966;2023-06-26T00:45:46;14.52;;;5.63;;
58384;SDS011;44185;47.844;8.966;2023-06-26T00:48:12;10.15;;;5.72;;
58384;SDS011;44185;47.844;8.966;2023-06-26T00:50:38;10.77;;;5.47;;
58384;SDS011;44185;47.844;8.966;2023-06-26T00:53:03;10.52;;;5.25;;
58384;SDS011;44185;47.844;8.966;2023-06-26T00:55:29;9.88;;;5.75;;
58384;SDS011;44185;47.844;8.966;2023-06-26T00:57:55;10.77;;;5.60;;
58384;SDS011;44185;47.844;8.966;2023-06-26T01:00:22;10.50;;;5.70;;
58384;SDS011;44185;47.844;8.966;2023-06-26T01:02:47;11.98;;;5.60;;
58384;SDS011;44185;47.844;8.966;2023-06-26T01:05:13;10.30;;;5.55;;
58384;SDS011;44185;47.844;8.966;2023-06-26T01:07:39;12.95;;;6.25;;
58384;SDS011;44185;47.844;8.966;2023-06-26T01:10:06;14.05;;;5.97;;
58384;SDS011;44185;47.844;8.966;2023-06-26T01:12:32;13.50;;;6.00;;
58384;SDS011;44185;47.844;8.966;2023-06-26T01:14:58;9.93;;;5.47;;
58384;SDS011;44185;47.844;8.966;2023-06-26T01:17:25;12.45;;;6.03;;
58384;SDS011;44185;47.844;8.966;2023-06-26T01:19:51;12.02;;;5.80;;
58384;SDS011;44185;47.844;8.966;2023-06-26T01:22:19;11.00;;;5.63;;
58384;SDS011;44185;47.844;8.966;2023-06-26T01:24:54;11.27;;;5.95;;
58384;SDS011;44185;47.844;8.966;2023-06-26T01:27:29;10.25;;;5.28;;
58384;SDS011;44185;47.844;8.966;2023-06-26T01:29:57;10.30;;;5.20;;
58384;SDS011;44185;47.844;8.966;2023-06-26T01:32:25;11.55;;;5.55;;
58384;SDS011;44185;47.844;8.966;2023-06-26T01:34:51;10.40;;;5.57;;
58384;SDS011;44185;47.844;8.966;2023-06-26T01:37:17;13.00;;;6.20;;
58384;SDS011;44185;47.844;8.966;2023-06-26T01:39:42;11.30;;;5.43;;
58384;SDS011;44185;47.844;8.966;2023-06-26T01:42:08;11.13;;;5.38;;
58384;SDS011;44185;47.844;8.966;2023-06-26T01:44:35;11.73;;;5.70;;
58384;SDS011;44185;47.844;8.966;2023-06-26T01:47:05;11.73;;;5.20;;
58384;SDS011;44185;47.844;8.966;2023-06-26T01:49:33;13.63;;;6.63;;
58384;SDS011;44185;47.844;8.966;2023-06-26T01:52:09;13.88;;;5.63;;
58384;SDS011;44185;47.844;8.966;2023-06-26T01:54:42;11.68;;;5.60;;
58384;SDS011;44185;47.844;8.966;2023-06-26T01:57:13;10.73;;;5.85;;
58384;SDS011;44185;47.844;8.966;2023-06-26T01:59:43;10.70;;;5.68;;
58384;SDS011;44185;47.844;8.966;2023-06-26T02:02:11;13.50;;;6.05;;
58384;SDS011;44185;47.844;8.966;2023-06-26T02:04:36;10.93;;;5.15;;
58384;SDS011;44185;47.844;8.966;2023-06-26T02:07:02;13.68;;;6.10;;
58384;SDS011;44185;47.844;8.966;2023-06-26T02:09:28;11.43;;;6.03;;
58384;SDS011;44185;47.844;8.966;2023-06-26T02:11:53;11.32;;;5.65;;
58384;SDS011;44185;47.844;8.966;2023-06-26T02:14:18;9.63;;;5.30;;
58384;SDS011;44185;47.844;8.966;2023-06-26T02:16:45;12.20;;;5.47;;
58384;SDS011;44185;47.844;8.966;2023-06-26T02:19:11;11.63;;;5.43;;
58384;SDS011;44185;47.844;8.966;2023-06-26T02:21:36;10.95;;;5.85;;
58384;SDS011;44185;47.844;8.966;2023-06-26T02:24:01;11.15;;;5.72;;
58384;SDS011;44185;47.844;8.966;2023-06-26T02:26:27;12.66;;;5.68;;
58384;SDS011;44185;47.844;8.966;2023-06-26T02:28:52;13.10;;;6.38;;
58384;SDS011;44185;47.844;8.966;2023-06-26T02:31:18;12.82;;;6.22;;
58384;SDS011;44185;47.844;8.966;2023-06-26T02:33:45;12.95;;;5.80;;
58384;SDS011;44185;47.844;8.966;2023-06-26T02:36:10;12.65;;;5.93;;
58384;SDS011;44185;47.844;8.966;2023-06-26T02:38:35;12.18;;;6.28;;
58384;SDS011;44185;47.844;8.966;2023-06-26T02:41:01;11.02;;;5.60;;
58384;SDS011;44185;47.844;8.966;2023-06-26T02:43:26;18.10;;;6.85;;
58384;SDS011;44185;47.844;8.966;2023-06-26T02:45:52;13.85;;;5.32;;
58384;SDS011;44185;47.844;8.966;2023-06-26T02:48:18;13.10;;;6.47;;
58384;SDS011;44185;47.844;8.966;2023-06-26T02:50:44;12.65;;;6.38;;
58384;SDS011;44185;47.844;8.966;2023-06-26T02:53:10;9.40;;;5.70;;
58384;SDS011;44185;47.844;8.966;2023-06-26T02:55:35;11.37;;;5.87;;
58384;SDS011;44185;47.844;8.966;2023-06-26T02:58:01;12.13;;;5.85;;
58384;SDS011;44185;47.844;8.966;2023-06-26T03:00:26;13.90;;;6.00;;
58384;SDS011;44185;47.844;8.966;2023-06-26T03:02:52;11.52;;;5.95;;
58384;SDS011;44185;47.844;8.966;2023-06-26T03:05:18;13.52;;;6.00;;
58384;SDS011;44185;47.844;8.966;2023-06-26T03:07:45;12.60;;;6.03;;
58384;SDS011;44185;47.844;8.966;2023-06-26T03:10:10;11.82;;;5.82;;
58384;SDS011;44185;47.844;8.966;2023-06-26T03:12:35;13.63;;;6.25;;
58384;SDS011;44185;47.844;8.966;2023-06-26T03:15:01;13.15;;;6.28;;
58384;SDS011;44185;47.844;8.966;2023-06-26T03:17:26;11.68;;;5.75;;
58384;SDS011;44185;47.844;8.966;2023-06-26T03:19:52;13.15;;;6.60;;
58384;SDS011;44185;47.844;8.966;2023-06-26T03:22:18;13.27;;;6.28;;
58384;SDS011;44185;47.844;8.966;2023-06-26T03:24:45;12.75;;;6.18;;
58384;SDS011;44185;47.844;8.966;2023-06-26T03:27:10;12.50;;;6.18;;
58384;SDS011;44185;47.844;8.966;2023-06-26T03:29:36;10.98;;;6.20;;
58384;SDS011;44185;47.844;8.966;2023-06-26T03:32:01;12.52;;;5.85;;
58384;SDS011;44185;47.844;8.966;2023-06-26T03:34:26;11.63;;;6.30;;
58384;SDS011;44185;47.844;8.966;2023-06-26T03:36:52;12.65;;;6.13;;
58384;SDS011;44185;47.844;8.966;2023-06-26T03:39:18;14.27;;;6.25;;
58384;SDS011;44185;47.844;8.966;2023-06-26T03:41:44;11.73;;;5.88;;
58384;SDS011;44185;47.844;8.966;2023-06-26T03:44:10;11.95;;;6.28;;
58384;SDS011;44185;47.844;8.966;2023-06-26T03:46:35;11.55;;;6.07;;
58384;SDS011;44185;47.844;8.966;2023-06-26T03:49:01;12.93;;;6.10;;
58384;SDS011;44185;47.844;8.966;2023-06-26T03:51:26;13.52;;;5.90;;
58384;SDS011;44185;47.844;8.966;2023-06-26T03:53:52;12.75;;;6.18;;
58384;SDS011;44185;47.844;8.966;2023-06-26T03:56:18;13.70;;;6.22;;
58384;SDS011;44185;47.844;8.966;2023-06-26T03:58:44;12.98;;;6.07;;
58384;SDS011;44185;47.844;8.966;2023-06-26T04:01:10;10.90;;;5.82;;
58384;SDS011;44185;47.844;8.966;2023-06-26T04:03:35;12.70;;;6.32;;
58384;SDS011;44185;47.844;8.966;2023-06-26T04:06:01;14.50;;;6.43;;
58384;SDS011;44185;47.844;8.966;2023-06-26T04:08:26;13.50;;;6.32;;
58384;SDS011;44185;47.844;8.966;2023-06-26T04:10:52;10.30;;;5.93;;
58384;SDS011;44185;47.844;8.966;2023-06-26T04:13:18;10.85;;;6.00;;
58384;SDS011;44185;47.844;8.966;2023-06-26T04:15:45;10.82;;;5.80;;
58384;SDS011;44185;47.844;8.966;2023-06-26T04:18:10;14.65;;;6.28;;
58384;SDS011;44185;47.844;8.966;2023-06-26T04:20:38;13.82;;;6.45;;
58384;SDS011;44185;47.844;8.966;2023-06-26T04:23:04;12.65;;;5.90;;
58384;SDS011;44185;47.844;8.966;2023-06-26T04:25:29;11.05;;;6.05;;
58384;SDS011;44185;47.844;8.966;2023-06-26T04:27:54;12.60;;;6.00;;
58384;SDS011;44185;47.844;8.966;2023-06-26T04:30:20;11.68;;;6.00;;
58384;SDS011;44185;47.844;8.966;2023-06-26T04:32:47;14.90;;;6.50;;
58384;SDS011;44185;47.844;8.966;2023-06-26T04:35:12;12.68;;;6.57;;
58384;SDS011;44185;47.844;8.966;2023-06-26T04:37:38;12.80;;;6.20;;
58384;SDS011;44185;47.844;8.966;2023-06-26T04:40:03;14.73;;;6.57;;
58384;SDS011;44185;47.844;8.966;2023-06-26T04:42:30;11.90;;;6.40;;
58384;SDS011;44185;47.844;8.966;2023-06-26T04:44:55;11.35;;;5.63;;
58384;SDS011;44185;47.844;8.966;2023-06-26T04:47:20;12.95;;;6.78;;
58384;SDS011;44185;47.844;8.966;2023-06-26T04:49:47;13.43;;;5.93;;
58384;SDS011;44185;47.844;8.966;2023-06-26T04:52:13;11.98;;;6.28;;
58384;SDS011;44185;47.844;8.966;2023-06-26T04:54:38;12.38;;;6.50;;
58384;SDS011;44185;47.844;8.966;2023-06-26T04:57:04;15.57;;;6.78;;
58384;SDS011;44185;47.844;8.966;2023-06-26T04:59:30;14.57;;;6.68;;
58384;SDS011;44185;47.844;8.966;2023-06-26T05:01:55;16.15;;;8.88;;
58384;SDS011;44185;47.844;8.966;2023-06-26T05:04:21;27.77;;;14.18;;
58384;SDS011;44185;47.844;8.966;2023-06-26T05:06:47;41.20;;;23.58;;
58384;SDS011;44185;47.844;8.966;2023-06-26T05:09:13;43.90;;;24.63;;
58384;SDS011;44185;47.844;8.966;2023-06-26T05:11:38;49.10;;;27.33;;
58384;SDS011;44185;47.844;8.966;2023-06-26T05:14:04;44.53;;;23.33;;
58384;SDS011;44185;47.844;8.966;2023-06-26T05:16:30;30.42;;;15.02;;
58384;SDS011;44185;47.844;8.966;2023-06-26T05:18:55;29.33;;;15.05;;
58384;SDS011;44185;47.844;8.966;2023-06-26T05:21:21;29.40;;;13.93;;
58384;SDS011;44185;47.844;8.966;2023-06-26T05:23:48;19.55;;;9.43;;
58384;SDS011;44185;47.844;8.966;2023-06-26T05:26:17;32.17;;;14.68;;
58384;SDS011;44185;47.844;8.966;2023-06-26T05:28:43;18.40;;;9.07;;
58384;SDS011;44185;47.844;8.966;2023-06-26T05:31:09;15.63;;;7.68;;
58384;SDS011;44185;47.844;8.966;2023-06-26T05:33:34;18.95;;;9.15;;
58384;SDS011;44185;47.844;8.966;2023-06-26T05:36:00;19.30;;;8.95;;
58384;SDS011;44185;47.844;8.966;2023-06-26T05:38:29;17.42;;;8.90;;
58384;SDS011;44185;47.844;8.966;2023-06-26T05:40:57;17.50;;;8.57;;
58384;SDS011;44185;47.844;8.966;2023-06-26T05:43:23;16.13;;;8.30;;
58384;SDS011;44185;47.844;8.966;2023-06-26T05:45:48;17.33;;;8.50;;
58384;SDS011;44185;47.844;8.966;2023-06-26T05:48:14;15.23;;;8.05;;
58384;SDS011;44185;47.844;8.966;2023-06-26T05:50:40;14.40;;;7.20;;
58384;SDS011;44185;47.844;8.966;2023-06-26T05:53:05;12.70;;;7.13;;
58384;SDS011;44185;47.844;8.966;2023-06-26T05:55:31;14.05;;;6.90;;
58384;SDS011;44185;47.844;8.966;2023-06-26T05:57:58;13.85;;;6.60;;
58384;SDS011;44185;47.844;8.966;2023-06-26T06:00:27;13.23;;;6.57;;
58384;SDS011;44185;47.844;8.966;2023-06-26T06:02:53;11.80;;;6.20;;
58384;SDS011;44185;47.844;8.966;2023-06-26T06:05:18;12.57;;;6.40;;
58384;SDS011;44185;47.844;8.966;2023-06-26T06:07:44;13.13;;;6.43;;
58384;SDS011;44185;47.844;8.966;2023-06-26T06:10:09;12.25;;;6.38;;
58384;SDS011;44185;47.844;8.966;2023-06-26T06:12:35;12.40;;;6.45;;
58384;SDS011;44185;47.844;8.966;2023-06-26T06:15:02;10.68;;;5.68;;
58384;SDS011;44185;47.844;8.966;2023-06-26T06:17:27;11.93;;;6.45;;
58384;SDS011;44185;47.844;8.966;2023-06-26T06:19:52;10.18;;;6.20;;
58384;SDS011;44185;47.844;8.966;2023-06-26T06:22:18;10.32;;;6.18;;
58384;SDS011;44185;47.844;8.966;2023-06-26T06:24:43;11.63;;;6.50;;
58384;SDS011;44185;47.844;8.966;2023-06-26T06:27:09;13.02;;;6.80;;
58384;SDS011;44185;47.844;8.966;2023-06-26T06:29:34;11.93;;;6.25;;
58384;SDS011;44185;47.844;8.966;2023-06-26T06:32:01;12.13;;;6.47;;
58384;SDS011;44185;47.844;8.966;2023-06-26T06:34:26;11.40;;;6.57;;
58384;SDS011;44185;47.844;8.966;2023-06-26T06:36:52;12.07;;;6.45;;
58384;SDS011;44185;47.844;8.966;2023-06-26T06:39:18;14.38;;;7.22;;
58384;SDS011;44185;47.844;8.966;2023-06-26T06:41:43;13.68;;;7.00;;
58384;SDS011;44185;47.844;8.966;2023-06-26T06:44:09;12.73;;;7.18;;
58384;SDS011;44185;47.844;8.966;2023-06-26T06:46:34;11.07;;;6.30;;
58384;SDS011;44185;47.844;8.966;2023-06-26T06:49:01;10.47;;;6.17;;
58384;SDS011;44185;47.844;8.966;2023-06-26T06:51:26;12.90;;;6.93;;
58384;SDS011;44185;47.844;8.966;2023-06-26T06:53:52;10.40;;;6.25;;
58384;SDS011;44185;47.844;8.966;2023-06-26T06:56:18;12.50;;;6.75;;
58384;SDS011;44185;47.844;8.966;2023-06-26T06:58:43;11.13;;;6.78;;
58384;SDS011;44185;47.844;8.966;2023-06-26T07:01:09;11.38;;;6.45;;
58384;SDS011;44185;47.844;8.966;2023-06-26T07:03:34;11.60;;;6.30;;
58384;SDS011;44185;47.844;8.966;2023-06-26T07:06:02;14.35;;;7.10;;
58384;SDS011;44185;47.844;8.966;2023-06-26T07:08:27;10.93;;;6.43;;
58384;SDS011;44185;47.844;8.966;2023-06-26T07:10:52;11.05;;;6.55;;
58384;SDS011;44185;47.844;8.966;2023-06-26T07:13:18;11.15;;;6.45;;
58384;SDS011;44185;47.844;8.966;2023-06-26T07:15:44;11.63;;;6.20;;
58384;SDS011;44185;47.844;8.966;2023-06-26T07:18:10;12.90;;;7.10;;
58384;SDS011;44185;47.844;8.966;2023-06-26T07:20:35;10.13;;;6.00;;
58384;SDS011;44185;47.844;8.966;2023-06-26T07:23:02;12.32;;;6.60;;
58384;SDS011;44185;47.844;8.966;2023-06-26T07:25:28;11.35;;;6.50;;
58384;SDS011;44185;47.844;8.966;2023-06-26T07:27:53;12.38;;;6.70;;
58384;SDS011;44185;47.844;8.966;2023-06-26T07:30:18;9.93;;;6.20;;
58384;SDS011;44185;47.844;8.966;2023-06-26T07:32:44;11.60;;;6.50;;
58384;SDS011;44185;47.844;8.966;2023-06-26T07:35:10;12.30;;;6.07;;
58384;SDS011;44185;47.844;8.966;2023-06-26T07:37:35;11.25;;;6.30;;
58384;SDS011;44185;47.844;8.966;2023-06-26T07:40:02;12.05;;;6.38;;
58384;SDS011;44185;47.844;8.966;2023-06-26T07:42:28;10.85;;;6.35;;
58384;SDS011;44185;47.844;8.966;2023-06-26T07:44:54;10.45;;;6.15;;
58384;SDS011;44185;47.844;8.966;2023-06-26T07:47:19;11.43;;;6.95;;
58384;SDS011;44185;47.844;8.966;2023-06-26T07:49:45;14.07;;;7.10;;
58384;SDS011;44185;47.844;8.966;2023-06-26T07:52:10;13.80;;;6.72;;
58384;SDS011;44185;47.844;8.966;2023-06-26T07:54:36;12.77;;;6.60;;
58384;SDS011;44185;47.844;8.966;2023-06-26T07:57:04;11.43;;;6.10;;
58384;SDS011;44185;47.844;8.966;2023-06-26T07:59:30;11.07;;;6.53;;
58384;SDS011;44185;47.844;8.966;2023-06-26T08:01:56;13.05;;;6.78;;
58384;SDS011;44185;47.844;8.966;2023-06-26T08:04:23;12.98;;;6.80;;
58384;SDS011;44185;47.844;8.966;2023-06-26T08:06:51;13.03;;;6.83;;
58384;SDS011;44185;47.844;8.966;2023-06-26T08:09:17;11.65;;;6.47;;
58384;SDS011;44185;47.844;8.966;2023-06-26T08:11:44;12.18;;;6.50;;
58384;SDS011;44185;47.844;8.966;2023-06-26T08:14:11;9.20;;;5.68;;
58384;SDS011;44185;47.844;8.966;2023-06-26T08:16:36;11.48;;;7.03;;
58384;SDS011;44185;47.844;8.966;2023-06-26T08:19:02;9.93;;;6.22;;
58384;SDS011;44185;47.844;8.966;2023-06-26T08:21:27;10.85;;;6.18;;
58384;SDS011;44185;47.844;8.966;2023-06-26T08:23:53;11.38;;;6.20;;
58384;SDS011;44185;47.844;8.966;2023-06-26T08:26:18;12.05;;;6.85;;
58384;SDS011;44185;47.844;8.966;2023-06-26T08:28:43;10.23;;;5.93;;
58384;SDS011;44185;47.844;8.966;2023-06-26T08:31:10;10.95;;;6.30;;
58384;SDS011;44185;47.844;8.966;2023-06-26T08:33:36;11.10;;;6.40;;
58384;SDS011;44185;47.844;8.966;2023-06-26T08:36:01;11.43;;;5.85;;
58384;SDS011;44185;47.844;8.966;2023-06-26T08:38:27;10.90;;;6.10;;
58384;SDS011;44185;47.844;8.966;2023-06-26T08:40:52;12.48;;;6.25;;
58384;SDS011;44185;47.844;8.966;2023-06-26T08:43:18;10.95;;;6.50;;
58384;SDS011;44185;47.844;8.966;2023-06-26T08:45:43;11.20;;;6.38;;
58384;SDS011;44185;47.844;8.966;2023-06-26T08:48:11;14.25;;;6.70;;
58384;SDS011;44185;47.844;8.966;2023-06-26T08:50:37;9.75;;;6.05;;
58384;SDS011;44185;47.844;8.966;2023-06-26T08:53:04;10.70;;;6.38;;
58384;SDS011;44185;47.844;8.966;2023-06-26T08:55:35;9.88;;;6.03;;
58384;SDS011;44185;47.844;8.966;2023-06-26T08:58:03;10.00;;;6.17;;
58384;SDS011;44185;47.844;8.966;2023-06-26T09:00:29;10.00;;;6.22;;
58384;SDS011;44185;47.844;8.966;2023-06-26T09:02:55;10.52;;;6.10;;
58384;SDS011;44185;47.844;8.966;2023-06-26T09:05:22;8.60;;;5.90;;
58384;SDS011;44185;47.844;8.966;2023-06-26T09:07:47;10.30;;;6.30;;
58384;SDS011;44185;47.844;8.966;2023-06-26T09:10:13;10.15;;;6.05;;
58384;SDS011;44185;47.844;8.966;2023-06-26T09:12:39;11.63;;;6.53;;
58384;SDS011;44185;47.844;8.966;2023-06-26T09:15:06;10.60;;;6.10;;
58384;SDS011;44185;47.844;8.966;2023-06-26T09:17:33;10.57;;;6.40;;
58384;SDS011;44185;47.844;8.966;2023-06-26T09:20:03;11.10;;;6.03;;
58384;SDS011;44185;47.844;8.966;2023-06-26T09:22:33;10.73;;;5.97;;
58384;SDS011;44185;47.844;8.966;2023-06-26T09:25:00;9.80;;;6.35;;
58384;SDS011;44185;47.844;8.966;2023-06-26T09:27:26;10.15;;;5.88;;
58384;SDS011;44185;47.844;8.966;2023-06-26T09:29:51;10.00;;;6.22;;
58384;SDS011;44185;47.844;8.966;2023-06-26T09:32:17;11.48;;;6.05;;
58384;SDS011;44185;47.844;8.966;2023-06-26T09:34:43;10.37;;;5.97;;
58384;SDS011;44185;47.844;8.966;2023-06-26T09:37:08;11.35;;;6.38;;
58384;SDS011;44185;47.844;8.966;2023-06-26T09:39:37;11.35;;;6.38;;
58384;SDS011;44185;47.844;8.966;2023-06-26T09:42:03;10.93;;;5.90;;
58384;SDS011;44185;47.844;8.966;2023-06-26T09:44:31;11.38;;;6.25;;
58384;SDS011;44185;47.844;8.966;2023-06-26T09:46:58;10.53;;;6.53;;
58384;SDS011;44185;47.844;8.966;2023-06-26T09:49:23;10.32;;;6.32;;
58384;SDS011;44185;47.844;8.966;2023-06-26T09:51:49;10.02;;;6.03;;
58384;SDS011;44185;47.844;8.966;2023-06-26T09:54:16;10.10;;;5.07;;
58384;SDS011;44185;47.844;8.966;2023-06-26T09:56:43;11.52;;;6.28;;
58384;SDS011;44185;47.844;8.966;2023-06-26T09:59:08;13.10;;;6.18;;
58384;SDS011;44185;47.844;8.966;2023-06-26T10:01:39;11.63;;;6.22;;
58384;SDS011;44185;47.844;8.966;2023-06-26T10:04:05;10.98;;;5.95;;
58384;SDS011;44185;47.844;8.966;2023-06-26T10:06:31;10.98;;;6.35;;
58384;SDS011;44185;47.844;8.966;2023-06-26T10:08:59;11.93;;;6.40;;
58384;SDS011;44185;47.844;8.966;2023-06-26T10:11:27;9.75;;;6.30;;
58384;SDS011;44185;47.844;8.966;2023-06-26T10:14:01;10.73;;;6.30;;
58384;SDS011;44185;47.844;8.966;2023-06-26T10:16:29;10.05;;;5.78;;
58384;SDS011;44185;47.844;8.966;2023-06-26T10:18:58;10.43;;;5.93;;
58384;SDS011;44185;47.844;8.966;2023-06-26T10:21:27;9.18;;;6.03;;
58384;SDS011;44185;47.844;8.966;2023-06-26T10:23:56;9.30;;;5.70;;
58384;SDS011;44185;47.844;8.966;2023-06-26T10:26:23;9.30;;;5.95;;
58384;SDS011;44185;47.844;8.966;2023-06-26T10:28:50;9.20;;;5.80;;
58384;SDS011;44185;47.844;8.966;2023-06-26T10:31:18;9.68;;;5.75;;
58384;SDS011;44185;47.844;8.966;2023-06-26T10:36:12;11.30;;;6.00;;
58384;SDS011;44185;47.844;8.966;2023-06-26T10:38:48;11.05;;;6.00;;
58384;SDS011;44185;47.844;8.966;2023-06-26T10:41:14;9.13;;;5.45;;
58384;SDS011;44185;47.844;8.966;2023-06-26T10:43:39;9.68;;;5.93;;
58384;SDS011;44185;47.844;8.966;2023-06-26T10:46:05;13.00;;;6.82;;
58384;SDS011;44185;47.844;8.966;2023-06-26T10:48:35;12.75;;;6.40;;
58384;SDS011;44185;47.844;8.966;2023-06-26T10:51:20;10.73;;;5.82;;
58384;SDS011;44185;47.844;8.966;2023-06-26T10:53:49;10.15;;;5.95;;
58384;SDS011;44185;47.844;8.966;2023-06-26T10:56:15;12.40;;;6.13;;
58384;SDS011;44185;47.844;8.966;2023-06-26T10:58:41;6.57;;;4.68;;
58384;SDS011;44185;47.844;8.966;2023-06-26T11:01:14;7.95;;;5.47;;
58384;SDS011;44185;47.844;8.966;2023-06-26T11:03:44;7.82;;;5.55;;
58384;SDS011;44185;47.844;8.966;2023-06-26T11:06:11;10.27;;;6.00;;
58384;SDS011;44185;47.844;8.966;2023-06-26T11:08:43;9.90;;;6.00;;
58384;SDS011;44185;47.844;8.966;2023-06-26T11:11:09;8.52;;;5.30;;
58384;SDS011;44185;47.844;8.966;2023-06-26T11:13:35;8.48;;;4.75;;
58384;SDS011;44185;47.844;8.966;2023-06-26T11:16:00;10.70;;;5.33;;
58384;SDS011;44185;47.844;8.966;2023-06-26T11:18:26;9.75;;;5.85;;
58384;SDS011;44185;47.844;8.966;2023-06-26T11:20:54;8.85;;;5.43;;
58384;SDS011;44185;47.844;8.966;2023-06-26T11:23:30;9.40;;;5.63;;
58384;SDS011;44185;47.844;8.966;2023-06-26T11:25:57;8.18;;;5.45;;
58384;SDS011;44185;47.844;8.966;2023-06-26T11:28:23;8.75;;;5.20;;
58384;SDS011;44185;47.844;8.966;2023-06-26T11:30:48;9.63;;;5.72;;
58384;SDS011;44185;47.844;8.966;2023-06-26T11:33:14;9.95;;;5.20;;
58384;SDS011;44185;47.844;8.966;2023-06-26T11:35:39;9.70;;;5.72;;
58384;SDS011;44185;47.844;8.966;2023-06-26T11:38:06;8.83;;;5.13;;
58384;SDS011;44185;47.844;8.966;2023-06-26T11:40:32;8.63;;;5.38;;
58384;SDS011;44185;47.844;8.966;2023-06-26T11:42:58;8.10;;;4.45;;
58384;SDS011;44185;47.844;8.966;2023-06-26T11:45:24;8.30;;;4.95;;
58384;SDS011;44185;47.844;8.966;2023-06-26T11:47:50;8.77;;;5.55;;
58384;SDS011;44185;47.844;8.966;2023-06-26T11:50:16;10.13;;;4.70;;
58384;SDS011;44185;47.844;8.966;2023-06-26T11:52:41;8.07;;;4.50;;
58384;SDS011;44185;47.844;8.966;2023-06-26T11:55:09;9.10;;;5.53;;
58384;SDS011;44185;47.844;8.966;2023-06-26T11:57:34;11.38;;;5.75;;
58384;SDS011;44185;47.844;8.966;2023-06-26T12:00:10;9.90;;;4.88;;
58384;SDS011;44185;47.844;8.966;2023-06-26T12:02:36;9.50;;;5.38;;
58384;SDS011;44185;47.844;8.966;2023-06-26T12:05:01;11.40;;;5.80;;
58384;SDS011;44185;47.844;8.966;2023-06-26T12:07:27;8.48;;;4.82;;
58384;SDS011;44185;47.844;8.966;2023-06-26T12:09:53;9.70;;;4.72;;
58384;SDS011;44185;47.844;8.966;2023-06-26T12:12:20;9.75;;;5.43;;
58384;SDS011;44185;47.844;8.966;2023-06-26T12:14:47;8.30;;;5.50;;
58384;SDS011;44185;47.844;8.966;2023-06-26T12:17:13;6.67;;;4.30;;
58384;SDS011;44185;47.844;8.966;2023-06-26T12:19:39;8.43;;;4.50;;
58384;SDS011;44185;47.844;8.966;2023-06-26T12:24:35;7.57;;;4.87;;
58384;SDS011;44185;47.844;8.966;2023-06-26T12:27:01;10.43;;;5.75;;
58384;SDS011;44185;47.844;8.966;2023-06-26T12:29:32;8.57;;;5.18;;
58384;SDS011;44185;47.844;8.966;2023-06-26T12:31:58;10.07;;;6.25;;
58384;SDS011;44185;47.844;8.966;2023-06-26T12:34:26;7.03;;;4.95;;
58384;SDS011;44185;47.844;8.966;2023-06-26T12:36:52;12.07;;;6.63;;
58384;SDS011;44185;47.844;8.966;2023-06-26T12:39:18;10.38;;;6.22;;
58384;SDS011;44185;47.844;8.966;2023-06-26T12:41:45;9.52;;;6.07;;
58384;SDS011;44185;47.844;8.966;2023-06-26T12:44:21;10.88;;;5.50;;
58384;SDS011;44185;47.844;8.966;2023-06-26T12:46:53;11.07;;;6.00;;
58384;SDS011;44185;47.844;8.966;2023-06-26T12:49:29;11.38;;;6.22;;
58384;SDS011;44185;47.844;8.966;2023-06-26T12:51:55;9.38;;;5.85;;
58384;SDS011;44185;47.844;8.966;2023-06-26T12:54:20;11.05;;;5.85;;
58384;SDS011;44185;47.844;8.966;2023-06-26T12:56:46;10.85;;;5.80;;
58384;SDS011;44185;47.844;8.966;2023-06-26T12:59:12;9.98;;;6.03;;
58384;SDS011;44185;47.844;8.966;2023-06-26T13:01:37;11.98;;;6.28;;
58384;SDS011;44185;47.844;8.966;2023-06-26T13:04:05;9.02;;;5.68;;
58384;SDS011;44185;47.844;8.966;2023-06-26T13:06:30;11.68;;;6.32;;
58384;SDS011;44185;47.844;8.966;2023-06-26T13:08:56;10.57;;;5.50;;
58384;SDS011;44185;47.844;8.966;2023-06-26T13:11:26;10.95;;;6.10;;
58384;SDS011;44185;47.844;8.966;2023-06-26T13:13:51;9.13;;;5.85;;
58384;SDS011;44185;47.844;8.966;2023-06-26T13:16:17;10.63;;;6.18;;
58384;SDS011;44185;47.844;8.966;2023-06-26T13:18:44;11.68;;;6.63;;
58384;SDS011;44185;47.844;8.966;2023-06-26T13:21:19;11.02;;;6.18;;
58384;SDS011;44185;47.844;8.966;2023-06-26T13:23:46;10.77;;;5.97;;
58384;SDS011;44185;47.844;8.966;2023-06-26T13:28:55;12.75;;;6.50;;
58384;SDS011;44185;47.844;8.966;2023-06-26T13:31:35;9.32;;;5.75;;
58384;SDS011;44185;47.844;8.966;2023-06-26T13:34:01;11.45;;;5.57;;
58384;SDS011;44185;47.844;8.966;2023-06-26T13:36:31;11.88;;;6.10;;
58384;SDS011;44185;47.844;8.966;2023-06-26T13:39:01;10.52;;;5.65;;
58384;SDS011;44185;47.844;8.966;2023-06-26T13:41:27;11.13;;;6.05;;
58384;SDS011;44185;47.844;8.966;2023-06-26T13:43:52;8.60;;;5.63;;
58384;SDS011;44185;47.844;8.966;2023-06-26T13:46:24;11.63;;;5.97;;
58384;SDS011;44185;47.844;8.966;2023-06-26T13:48:49;9.65;;;5.65;;
58384;SDS011;44185;47.844;8.966;2023-06-26T13:51:15;9.55;;;5.85;;
58384;SDS011;44185;47.844;8.966;2023-06-26T13:53:44;9.35;;;5.47;;
58384;SDS011;44185;47.844;8.966;2023-06-26T13:56:10;9.95;;;5.90;;
58384;SDS011;44185;47.844;8.966;2023-06-26T13:58:35;10.15;;;5.95;;
58384;SDS011;44185;47.844;8.966;2023-06-26T14:01:01;9.60;;;5.95;;
58384;SDS011;44185;47.844;8.966;2023-06-26T14:03:27;9.90;;;5.90;;
58384;SDS011;44185;47.844;8.966;2023-06-26T14:05:52;10.63;;;6.25;;
58384;SDS011;44185;47.844;8.966;2023-06-26T14:08:18;9.65;;;5.85;;
58384;SDS011;44185;47.844;8.966;2023-06-26T14:10:45;11.10;;;6.43;;
58384;SDS011;44185;47.844;8.966;2023-06-26T14:13:10;10.85;;;6.22;;
58384;SDS011;44185;47.844;8.966;2023-06-26T14:15:35;11.77;;;6.30;;
58384;SDS011;44185;47.844;8.966;2023-06-26T14:18:01;10.65;;;6.45;;
58384;SDS011;44185;47.844;8.966;2023-06-26T14:20:27;9.40;;;6.43;;
58384;SDS011;44185;47.844;8.966;2023-06-26T14:22:52;10.80;;;6.40;;
58384;SDS011;44185;47.844;8.966;2023-06-26T14:25:18;9.07;;;6.15;;
58384;SDS011;44185;47.844;8.966;2023-06-26T14:27:47;10.38;;;6.10;;
58384;SDS011;44185;47.844;8.966;2023-06-26T14:30:12;10.88;;;5.90;;
58384;SDS011;44185;47.844;8.966;2023-06-26T14:32:38;9.13;;;5.95;;
58384;SDS011;44185;47.844;8.966;2023-06-26T14:35:04;9.37;;;5.50;;
58384;SDS011;44185;47.844;8.966;2023-06-26T14:37:30;10.65;;;6.65;;
58384;SDS011;44185;47.844;8.966;2023-06-26T14:39:55;9.70;;;6.10;;